sensor_id;sensor_type;location;lat;lon;timestamp;pressure;altitude;pressure_sealevel;temperature;humidity
61554;BME280;47425;51.976;5.326;2022-07-24T08:02:35;101745.19;;;23.35;49.07
61554;BME280;47425;51.976;5.326;2022-07-24T08:05:02;101782.81;;;23.91;48.58
61554;BME280;47425;51.976;5.326;2022-07-24T08:07:27;101775.25;;;24.27;47.63
61554;BME280;47425;51.976;5.326;2022-07-24T08:09:53;101781.81;;;24.65;47.21
61554;BME280;47425;51.976;5.326;2022-07-24T08:12:18;101776.44;;;24.92;46.02
61554;BME280;47425;51.976;5.326;2022-07-24T08:14:45;101780.47;;;25.12;45.50
61554;BME280;47425;51.976;5.326;2022-07-24T08:17:10;101783.75;;;25.30;45.43
61554;BME280;47425;51.976;5.326;2022-07-24T08:19:37;101786.47;;;25.43;45.37
61554;BME280;47425;51.976;5.326;2022-07-24T08:22:04;101799.25;;;25.52;45.17
61554;BME280;47425;51.976;5.326;2022-07-24T08:24:30;101783.34;;;25.62;45.09
61554;BME280;47425;51.976;5.326;2022-07-24T08:26:58;101791.94;;;25.67;44.14
61554;BME280;47425;51.976;5.326;2022-07-24T08:29:24;101797.00;;;25.72;43.93
61554;BME280;47425;51.976;5.326;2022-07-24T08:31:51;101775.53;;;25.72;43.93
61554;BME280;47425;51.976;5.326;2022-07-24T08:34:17;101787.97;;;25.86;43.66
61554;BME280;47425;51.976;5.326;2022-07-24T08:36:42;101781.09;;;25.94;44.11
61554;BME280;47425;51.976;5.326;2022-07-24T08:39:12;101758.47;;;25.86;44.05
61554;BME280;47425;51.976;5.326;2022-07-24T08:41:38;101780.16;;;26.08;43.96
61554;BME280;47425;51.976;5.326;2022-07-24T08:44:04;101771.16;;;26.09;43.48
61554;BME280;47425;51.976;5.326;2022-07-24T08:46:30;101774.25;;;26.16;43.88
61554;BME280;47425;51.976;5.326;2022-07-24T08:48:57;101773.59;;;26.25;43.52
61554;BME280;47425;51.976;5.326;2022-07-24T08:51:29;101774.31;;;26.27;43.11
61554;BME280;47425;51.976;5.326;2022-07-24T08:53:56;101764.41;;;26.28;43.16
61554;BME280;47425;51.976;5.326;2022-07-24T08:56:23;101737.50;;;26.17;43.16
61554;BME280;47425;51.976;5.326;2022-07-24T08:58:49;101756.03;;;26.33;43.47
61554;BME280;47425;51.976;5.326;2022-07-24T09:01:14;101768.91;;;26.40;42.97
61554;BME280;47425;51.976;5.326;2022-07-24T09:03:42;101756.44;;;26.39;42.86
61554;BME280;47425;51.976;5.326;2022-07-24T09:06:09;101757.31;;;26.40;43.29
61554;BME280;47425;51.976;5.326;2022-07-24T09:08:37;101755.91;;;26.47;42.92
61554;BME280;47425;51.976;5.326;2022-07-24T09:11:04;101747.72;;;26.49;42.80
61554;BME280;47425;51.976;5.326;2022-07-24T09:13:33;101750.16;;;26.52;42.84
61554;BME280;47425;51.976;5.326;2022-07-24T09:16:24;101754.47;;;26.54;42.74
61554;BME280;47425;51.976;5.326;2022-07-24T09:19:02;101745.44;;;26.55;42.96
61554;BME280;47425;51.976;5.326;2022-07-24T09:21:35;101741.66;;;26.58;43.04
61554;BME280;47425;51.976;5.326;2022-07-24T09:24:13;101754.63;;;26.64;43.27
61554;BME280;47425;51.976;5.326;2022-07-24T09:26:59;101742.50;;;26.71;42.83
61554;BME280;47425;51.976;5.326;2022-07-24T09:29:25;101744.31;;;26.71;42.77
61554;BME280;47425;51.976;5.326;2022-07-24T09:31:59;101744.41;;;26.69;42.75
61554;BME280;47425;51.976;5.326;2022-07-24T09:34:44;101750.84;;;26.79;42.53
61554;BME280;47425;51.976;5.326;2022-07-24T09:37:10;101759.63;;;26.82;42.99
61554;BME280;47425;51.976;5.326;2022-07-24T09:39:36;101751.34;;;26.85;42.84
61554;BME280;47425;51.976;5.326;2022-07-24T09:42:05;101747.66;;;26.86;42.87
61554;BME280;47425;51.976;5.326;2022-07-24T09:44:31;101729.66;;;26.75;43.28
61554;BME280;47425;51.976;5.326;2022-07-24T09:47:04;101746.94;;;26.84;43.06
61554;BME280;47425;51.976;5.326;2022-07-24T09:49:32;101740.25;;;26.89;42.96
61554;BME280;47425;51.976;5.326;2022-07-24T09:54:34;101737.31;;;26.92;43.08
61554;BME280;47425;51.976;5.326;2022-07-24T10:00:00;101743.09;;;26.99;42.87
61554;BME280;47425;51.976;5.326;2022-07-24T10:02:33;101743.84;;;27.01;42.75
61554;BME280;47425;51.976;5.326;2022-07-24T10:05:02;101745.44;;;27.04;42.47
61554;BME280;47425;51.976;5.326;2022-07-24T10:07:29;101745.19;;;27.07;42.84
61554;BME280;47425;51.976;5.326;2022-07-24T10:09:58;101737.75;;;27.10;42.74
61554;BME280;47425;51.976;5.326;2022-07-24T10:12:31;101738.59;;;27.11;42.62
61554;BME280;47425;51.976;5.326;2022-07-24T10:14:59;101719.78;;;27.00;42.66
61554;BME280;47425;51.976;5.326;2022-07-24T10:18:02;101731.88;;;27.17;43.01
61554;BME280;47425;51.976;5.326;2022-07-24T10:20:39;101732.66;;;27.19;42.29
61554;BME280;47425;51.976;5.326;2022-07-24T10:23:07;101728.13;;;27.19;42.22
61554;BME280;47425;51.976;5.326;2022-07-24T10:25:52;101722.84;;;27.18;42.35
61554;BME280;47425;51.976;5.326;2022-07-24T10:28:34;101726.28;;;27.20;42.97
61554;BME280;47425;51.976;5.326;2022-07-24T10:31:04;101707.59;;;27.18;42.59
61554;BME280;47425;51.976;5.326;2022-07-24T10:33:30;101726.06;;;27.23;42.35
61554;BME280;47425;51.976;5.326;2022-07-24T10:35:58;101717.03;;;27.24;42.65
61554;BME280;47425;51.976;5.326;2022-07-24T10:38:33;101713.81;;;27.19;42.84
61554;BME280;47425;51.976;5.326;2022-07-24T10:41:09;101706.72;;;27.18;42.60
61554;BME280;47425;51.976;5.326;2022-07-24T10:43:39;101718.63;;;27.26;42.56
61554;BME280;47425;51.976;5.326;2022-07-24T10:48:33;101713.00;;;27.29;42.61
61554;BME280;47425;51.976;5.326;2022-07-24T10:51:06;101711.91;;;27.32;42.09
61554;BME280;47425;51.976;5.326;2022-07-24T10:58:58;101702.09;;;27.31;42.07
61554;BME280;47425;51.976;5.326;2022-07-24T11:03:56;101703.25;;;27.40;42.08
61554;BME280;47425;51.976;5.326;2022-07-24T11:09:07;101691.84;;;27.36;42.37
61554;BME280;47425;51.976;5.326;2022-07-24T11:11:32;101696.53;;;27.45;41.92
61554;BME280;47425;51.976;5.326;2022-07-24T11:13:59;101672.41;;;27.33;42.03
61554;BME280;47425;51.976;5.326;2022-07-24T11:16:33;101672.19;;;27.36;42.38
61554;BME280;47425;51.976;5.326;2022-07-24T11:21:40;101687.25;;;27.50;42.13
61554;BME280;47425;51.976;5.326;2022-07-24T11:26:55;101696.06;;;27.52;41.88
61554;BME280;47425;51.976;5.326;2022-07-24T11:29:28;101689.56;;;27.54;42.01
61554;BME280;47425;51.976;5.326;2022-07-24T11:31:58;101690.44;;;27.55;41.82
61554;BME280;47425;51.976;5.326;2022-07-24T11:34:25;101686.66;;;27.57;41.67
61554;BME280;47425;51.976;5.326;2022-07-24T11:36:52;101682.09;;;27.58;42.12
61554;BME280;47425;51.976;5.326;2022-07-24T11:39:19;101664.97;;;27.48;42.38
61554;BME280;47425;51.976;5.326;2022-07-24T11:41:56;101679.41;;;27.58;42.28
61554;BME280;47425;51.976;5.326;2022-07-24T11:44:29;101681.00;;;27.60;42.31
61554;BME280;47425;51.976;5.326;2022-07-24T11:46:58;101671.00;;;27.62;41.73
61554;BME280;47425;51.976;5.326;2022-07-24T11:49:26;101664.59;;;27.63;42.20
61554;BME280;47425;51.976;5.326;2022-07-24T11:51:54;101653.63;;;27.67;42.00
61554;BME280;47425;51.976;5.326;2022-07-24T11:54:22;101655.31;;;27.68;41.84
61554;BME280;47425;51.976;5.326;2022-07-24T11:56:48;101658.75;;;27.70;41.73
61554;BME280;47425;51.976;5.326;2022-07-24T11:59:25;101656.19;;;27.68;41.99
61554;BME280;47425;51.976;5.326;2022-07-24T12:02:07;101655.94;;;27.71;42.12
61554;BME280;47425;51.976;5.326;2022-07-24T12:04:53;101638.06;;;27.70;41.83
61554;BME280;47425;51.976;5.326;2022-07-24T12:07:24;101628.53;;;27.66;41.82
61554;BME280;47425;51.976;5.326;2022-07-24T12:10:10;101641.75;;;27.69;42.04
61554;BME280;47425;51.976;5.326;2022-07-24T12:12:38;101636.97;;;27.73;41.69
61554;BME280;47425;51.976;5.326;2022-07-24T12:17:31;101644.41;;;27.80;41.87
61554;BME280;47425;51.976;5.326;2022-07-24T12:19:59;101632.44;;;27.73;41.85
61554;BME280;47425;51.976;5.326;2022-07-24T12:22:26;101634.63;;;27.91;41.65
61554;BME280;47425;51.976;5.326;2022-07-24T12:24:53;101631.72;;;27.83;41.37
61554;BME280;47425;51.976;5.326;2022-07-24T12:27:41;101631.94;;;27.79;41.65
61554;BME280;47425;51.976;5.326;2022-07-24T12:30:22;101616.88;;;27.77;41.77
61554;BME280;47425;51.976;5.326;2022-07-24T12:35:24;101629.00;;;27.83;41.46
61554;BME280;47425;51.976;5.326;2022-07-24T12:37:51;101619.09;;;27.83;41.98
61554;BME280;47425;51.976;5.326;2022-07-24T12:43:11;101618.59;;;27.89;41.85
61554;BME280;47425;51.976;5.326;2022-07-24T12:45:39;101612.22;;;27.90;41.88
61554;BME280;47425;51.976;5.326;2022-07-24T12:48:17;101615.03;;;27.89;41.72
61554;BME280;47425;51.976;5.326;2022-07-24T12:51:08;101590.31;;;27.84;41.85
61554;BME280;47425;51.976;5.326;2022-07-24T12:53:41;101601.97;;;27.84;41.67
61554;BME280;47425;51.976;5.326;2022-07-24T12:56:13;101595.94;;;27.92;41.64
61554;BME280;47425;51.976;5.326;2022-07-24T13:01:25;101584.19;;;27.93;42.18
61554;BME280;47425;51.976;5.326;2022-07-24T13:03:57;101589.69;;;27.91;41.37
61554;BME280;47425;51.976;5.326;2022-07-24T13:06:34;101576.25;;;27.91;41.68
61554;BME280;47425;51.976;5.326;2022-07-24T13:09:02;101584.06;;;27.94;41.52
61554;BME280;47425;51.976;5.326;2022-07-24T13:11:28;101583.22;;;27.94;41.79
61554;BME280;47425;51.976;5.326;2022-07-24T13:13:53;101578.09;;;27.91;41.64
61554;BME280;47425;51.976;5.326;2022-07-24T13:16:19;101584.94;;;27.95;41.72
61554;BME280;47425;51.976;5.326;2022-07-24T13:18:45;101584.78;;;27.96;41.69
61554;BME280;47425;51.976;5.326;2022-07-24T13:21:11;101567.19;;;27.92;41.73
61554;BME280;47425;51.976;5.326;2022-07-24T13:23:36;101566.78;;;27.97;41.79
61554;BME280;47425;51.976;5.326;2022-07-24T13:26:03;101556.03;;;27.97;41.64
61554;BME280;47425;51.976;5.326;2022-07-24T13:28:28;101555.19;;;27.96;41.41
61554;BME280;47425;51.976;5.326;2022-07-24T13:30:54;101547.94;;;27.97;41.75
61554;BME280;47425;51.976;5.326;2022-07-24T13:33:19;101543.31;;;27.99;41.58
61554;BME280;47425;51.976;5.326;2022-07-24T13:35:45;101538.91;;;27.98;41.76
61554;BME280;47425;51.976;5.326;2022-07-24T13:38:11;101542.44;;;27.99;41.91
61554;BME280;47425;51.976;5.326;2022-07-24T13:40:36;101539.75;;;27.99;41.76
61554;BME280;47425;51.976;5.326;2022-07-24T13:43:02;101534.50;;;27.97;41.53
61554;BME280;47425;51.976;5.326;2022-07-24T13:45:27;101533.38;;;28.00;41.67
61554;BME280;47425;51.976;5.326;2022-07-24T13:47:52;101523.47;;;28.00;41.59
61554;BME280;47425;51.976;5.326;2022-07-24T13:50:18;101518.97;;;28.01;41.61
61554;BME280;47425;51.976;5.326;2022-07-24T13:52:44;101512.72;;;28.00;41.69
61554;BME280;47425;51.976;5.326;2022-07-24T13:55:10;101517.13;;;28.01;41.57
61554;BME280;47425;51.976;5.326;2022-07-24T13:57:35;101489.75;;;27.85;41.76
61554;BME280;47425;51.976;5.326;2022-07-24T14:00:01;101488.25;;;27.92;42.27
61554;BME280;47425;51.976;5.326;2022-07-24T14:02:29;101507.03;;;28.15;41.54
61554;BME280;47425;51.976;5.326;2022-07-24T14:04:55;101508.47;;;28.19;41.78
61554;BME280;47425;51.976;5.326;2022-07-24T14:07:20;101494.50;;;28.25;41.54
61554;BME280;47425;51.976;5.326;2022-07-24T14:09:47;101494.97;;;28.30;41.12
61554;BME280;47425;51.976;5.326;2022-07-24T14:12:12;101495.66;;;28.32;41.17
61554;BME280;47425;51.976;5.326;2022-07-24T14:14:38;101483.63;;;28.36;41.26
61554;BME280;47425;51.976;5.326;2022-07-24T14:17:04;101488.19;;;28.36;41.08
61554;BME280;47425;51.976;5.326;2022-07-24T14:19:31;101484.38;;;28.38;41.14
61554;BME280;47425;51.976;5.326;2022-07-24T14:21:56;101485.94;;;28.41;41.43
61554;BME280;47425;51.976;5.326;2022-07-24T14:24:22;101478.72;;;28.41;41.07
61554;BME280;47425;51.976;5.326;2022-07-24T14:26:50;101476.47;;;28.46;40.82
61554;BME280;47425;51.976;5.326;2022-07-24T14:29:16;101470.94;;;28.48;40.88
61554;BME280;47425;51.976;5.326;2022-07-24T14:31:41;101470.94;;;28.48;40.73
61554;BME280;47425;51.976;5.326;2022-07-24T14:34:07;101472.38;;;28.52;40.74
61554;BME280;47425;51.976;5.326;2022-07-24T14:36:33;101472.16;;;28.55;40.58
61554;BME280;47425;51.976;5.326;2022-07-24T14:38:59;101472.00;;;28.57;41.11
61554;BME280;47425;51.976;5.326;2022-07-24T14:41:24;101462.81;;;28.59;40.64
61554;BME280;47425;51.976;5.326;2022-07-24T14:43:51;101469.03;;;28.60;40.50
61554;BME280;47425;51.976;5.326;2022-07-24T14:46:16;101454.00;;;28.57;40.54
61554;BME280;47425;51.976;5.326;2022-07-24T14:48:41;101423.47;;;28.47;40.63
61554;BME280;47425;51.976;5.326;2022-07-24T14:51:07;101446.09;;;28.66;40.27
61554;BME280;47425;51.976;5.326;2022-07-24T14:53:33;101435.22;;;28.67;40.46
61554;BME280;47425;51.976;5.326;2022-07-24T14:55:59;101436.91;;;28.68;40.28
61554;BME280;47425;51.976;5.326;2022-07-24T14:58:25;101424.69;;;28.64;40.13
61554;BME280;47425;51.976;5.326;2022-07-24T15:00:51;101428.81;;;28.68;40.25
61554;BME280;47425;51.976;5.326;2022-07-24T15:03:16;101397.97;;;28.51;40.14
61554;BME280;47425;51.976;5.326;2022-07-24T15:05:41;101430.53;;;28.69;39.99
61554;BME280;47425;51.976;5.326;2022-07-24T15:08:08;101339.09;;;28.16;39.96
61554;BME280;47425;51.976;5.326;2022-07-24T15:10:33;101323.59;;;28.08;39.93
61554;BME280;47425;51.976;5.326;2022-07-24T15:12:59;101415.19;;;28.70;40.47
61554;BME280;47425;51.976;5.326;2022-07-24T15:15:24;101404.41;;;28.70;40.11
61554;BME280;47425;51.976;5.326;2022-07-24T15:17:51;101421.19;;;28.73;40.06
61554;BME280;47425;51.976;5.326;2022-07-24T15:20:16;101307.06;;;28.12;40.03
61554;BME280;47425;51.976;5.326;2022-07-24T15:22:42;101409.41;;;28.74;39.97
61554;BME280;47425;51.976;5.326;2022-07-24T15:25:08;101408.28;;;28.77;40.12
61554;BME280;47425;51.976;5.326;2022-07-24T15:27:34;101386.56;;;28.69;39.95
61554;BME280;47425;51.976;5.326;2022-07-24T15:29:59;101399.09;;;28.79;40.12
61554;BME280;47425;51.976;5.326;2022-07-24T15:32:25;101398.06;;;28.80;40.00
61554;BME280;47425;51.976;5.326;2022-07-24T15:34:51;101386.31;;;28.82;39.84
61554;BME280;47425;51.976;5.326;2022-07-24T15:37:17;101360.59;;;28.68;39.76
61554;BME280;47425;51.976;5.326;2022-07-24T15:39:42;101381.78;;;28.82;39.72
61554;BME280;47425;51.976;5.326;2022-07-24T15:42:07;101379.19;;;28.80;39.68
61554;BME280;47425;51.976;5.326;2022-07-24T15:44:33;101384.72;;;28.79;39.88
61554;BME280;47425;51.976;5.326;2022-07-24T15:46:58;101369.13;;;28.73;40.03
61554;BME280;47425;51.976;5.326;2022-07-24T15:49:24;101368.25;;;28.72;39.63
61554;BME280;47425;51.976;5.326;2022-07-24T15:52:09;101352.19;;;28.61;39.73
61554;BME280;47425;51.976;5.326;2022-07-24T15:54:34;101370.13;;;28.72;39.98
61554;BME280;47425;51.976;5.326;2022-07-24T15:57:00;101341.53;;;28.59;39.81
61554;BME280;47425;51.976;5.326;2022-07-24T15:59:25;101343.69;;;28.66;39.92
61554;BME280;47425;51.976;5.326;2022-07-24T16:01:52;101361.88;;;28.73;39.65
61554;BME280;47425;51.976;5.326;2022-07-24T16:04:18;101347.56;;;28.73;39.81
61554;BME280;47425;51.976;5.326;2022-07-24T16:06:44;101339.75;;;28.70;39.64
61554;BME280;47425;51.976;5.326;2022-07-24T16:09:11;101341.44;;;28.71;39.89
61554;BME280;47425;51.976;5.326;2022-07-24T16:11:38;101333.38;;;28.71;39.75
61554;BME280;47425;51.976;5.326;2022-07-24T16:14:03;101332.66;;;28.69;39.85
61554;BME280;47425;51.976;5.326;2022-07-24T16:16:29;101332.09;;;28.65;39.71
61554;BME280;47425;51.976;5.326;2022-07-24T16:18:56;101331.78;;;28.68;39.76
61554;BME280;47425;51.976;5.326;2022-07-24T16:21:22;101330.81;;;28.69;39.83
61554;BME280;47425;51.976;5.326;2022-07-24T16:23:48;101330.41;;;28.74;39.83
61554;BME280;47425;51.976;5.326;2022-07-24T16:26:13;101331.94;;;28.76;40.16
61554;BME280;47425;51.976;5.326;2022-07-24T16:28:40;101328.28;;;28.77;40.01
61554;BME280;47425;51.976;5.326;2022-07-24T16:31:05;101310.00;;;28.81;39.78
61554;BME280;47425;51.976;5.326;2022-07-24T16:33:32;101290.38;;;28.69;39.78
61554;BME280;47425;51.976;5.326;2022-07-24T16:35:59;101306.31;;;28.82;40.02
61554;BME280;47425;51.976;5.326;2022-07-24T16:38:24;101309.69;;;28.84;40.24
61554;BME280;47425;51.976;5.326;2022-07-24T16:40:50;101298.91;;;28.84;40.13
61554;BME280;47425;51.976;5.326;2022-07-24T16:43:17;101301.47;;;28.86;40.48
61554;BME280;47425;51.976;5.326;2022-07-24T16:45:43;101300.34;;;28.88;40.29
61554;BME280;47425;51.976;5.326;2022-07-24T16:48:09;101294.25;;;28.86;40.67
61554;BME280;47425;51.976;5.326;2022-07-24T16:50:35;101294.25;;;28.86;40.75
61554;BME280;47425;51.976;5.326;2022-07-24T16:53:02;101291.69;;;28.85;40.69
61554;BME280;47425;51.976;5.326;2022-07-24T16:55:28;101287.56;;;28.80;40.62
61554;BME280;47425;51.976;5.326;2022-07-24T16:57:53;101282.44;;;28.77;40.71
61554;BME280;47425;51.976;5.326;2022-07-24T17:00:19;101259.19;;;28.67;40.76
61554;BME280;47425;51.976;5.326;2022-07-24T17:02:46;101279.06;;;28.75;40.76
61554;BME280;47425;51.976;5.326;2022-07-24T17:05:11;101257.88;;;28.61;40.73
61554;BME280;47425;51.976;5.326;2022-07-24T17:07:37;101271.53;;;28.69;40.84
61554;BME280;47425;51.976;5.326;2022-07-24T17:10:04;101268.13;;;28.67;41.23
61554;BME280;47425;51.976;5.326;2022-07-24T17:12:31;101258.84;;;28.60;40.60
61554;BME280;47425;51.976;5.326;2022-07-24T17:14:56;101256.72;;;28.54;40.74
61554;BME280;47425;51.976;5.326;2022-07-24T17:17:22;101268.97;;;28.68;41.08
61554;BME280;47425;51.976;5.326;2022-07-24T17:20:08;101246.06;;;28.52;40.49
61554;BME280;47425;51.976;5.326;2022-07-24T17:22:34;101262.00;;;28.65;40.80
61554;BME280;47425;51.976;5.326;2022-07-24T17:24:59;101253.16;;;28.53;40.62
61554;BME280;47425;51.976;5.326;2022-07-24T17:27:25;101263.00;;;28.64;41.29
61554;BME280;47425;51.976;5.326;2022-07-24T17:29:51;101267.50;;;28.63;41.01
61554;BME280;47425;51.976;5.326;2022-07-24T17:32:17;101265.81;;;28.62;41.32
61554;BME280;47425;51.976;5.326;2022-07-24T17:34:42;101249.19;;;28.57;40.90
61554;BME280;47425;51.976;5.326;2022-07-24T17:37:08;101258.00;;;28.59;40.93
61554;BME280;47425;51.976;5.326;2022-07-24T17:39:34;101264.25;;;28.60;41.00
61554;BME280;47425;51.976;5.326;2022-07-24T17:41:59;101258.00;;;28.59;41.12
61554;BME280;47425;51.976;5.326;2022-07-24T17:44:25;101266.94;;;28.60;40.92
61554;BME280;47425;51.976;5.326;2022-07-24T17:46:53;101257.44;;;28.56;41.01
61554;BME280;47425;51.976;5.326;2022-07-24T17:49:19;101261.84;;;28.57;41.14
61554;BME280;47425;51.976;5.326;2022-07-24T17:51:44;101253.88;;;28.55;41.18
61554;BME280;47425;51.976;5.326;2022-07-24T17:54:09;101252.88;;;28.56;41.04
61554;BME280;47425;51.976;5.326;2022-07-24T17:56:35;101245.81;;;28.55;41.06
61554;BME280;47425;51.976;5.326;2022-07-24T17:59:00;101241.41;;;28.54;41.23
61554;BME280;47425;51.976;5.326;2022-07-24T18:01:25;101248.50;;;28.55;41.43
61554;BME280;47425;51.976;5.326;2022-07-24T18:03:52;101248.50;;;28.55;41.00
61554;BME280;47425;51.976;5.326;2022-07-24T18:06:17;101246.66;;;28.56;41.24
61554;BME280;47425;51.976;5.326;2022-07-24T18:08:43;101239.56;;;28.55;41.08
61554;BME280;47425;51.976;5.326;2022-07-24T18:11:08;101231.75;;;28.52;41.28
61554;BME280;47425;51.976;5.326;2022-07-24T18:13:55;101226.50;;;28.50;41.26
61554;BME280;47425;51.976;5.326;2022-07-24T18:16:23;101231.47;;;28.55;41.27
61554;BME280;47425;51.976;5.326;2022-07-24T18:18:48;101216.03;;;28.47;41.01
61554;BME280;47425;51.976;5.326;2022-07-24T18:21:16;101231.59;;;28.53;41.49
61554;BME280;47425;51.976;5.326;2022-07-24T18:23:41;101229.06;;;28.52;41.26
61554;BME280;47425;51.976;5.326;2022-07-24T18:26:06;101233.59;;;28.51;41.33
61554;BME280;47425;51.976;5.326;2022-07-24T18:28:32;101226.81;;;28.47;41.09
61554;BME280;47425;51.976;5.326;2022-07-24T18:30:59;101231.03;;;28.50;41.56
61554;BME280;47425;51.976;5.326;2022-07-24T18:33:25;101222.25;;;28.48;41.61
61554;BME280;47425;51.976;5.326;2022-07-24T18:35:51;101233.88;;;28.48;41.40
61554;BME280;47425;51.976;5.326;2022-07-24T18:38:16;101217.25;;;28.43;41.78
61554;BME280;47425;51.976;5.326;2022-07-24T18:40:43;101197.56;;;28.33;41.83
61554;BME280;47425;51.976;5.326;2022-07-24T18:43:08;101221.81;;;28.42;41.61
61554;BME280;47425;51.976;5.326;2022-07-24T18:45:34;101218.41;;;28.40;42.02
61554;BME280;47425;51.976;5.326;2022-07-24T18:48:00;101225.03;;;28.36;42.20
61554;BME280;47425;51.976;5.326;2022-07-24T18:50:26;101217.97;;;28.35;41.92
61554;BME280;47425;51.976;5.326;2022-07-24T18:52:51;101211.41;;;28.28;42.18
61554;BME280;47425;51.976;5.326;2022-07-24T18:55:17;101218.22;;;28.32;42.22
61554;BME280;47425;51.976;5.326;2022-07-24T18:57:44;101217.53;;;28.30;42.23
61554;BME280;47425;51.976;5.326;2022-07-24T19:00:09;101210.59;;;28.27;42.30
61554;BME280;47425;51.976;5.326;2022-07-24T19:02:38;101206.03;;;28.28;42.37
61554;BME280;47425;51.976;5.326;2022-07-24T19:05:06;101198.97;;;28.27;42.72
61554;BME280;47425;51.976;5.326;2022-07-24T19:07:32;101193.59;;;28.27;42.25
61554;BME280;47425;51.976;5.326;2022-07-24T19:09:57;101203.50;;;28.26;42.46
61554;BME280;47425;51.976;5.326;2022-07-24T19:12:23;101199.09;;;28.25;42.69
61554;BME280;47425;51.976;5.326;2022-07-24T19:14:49;101199.22;;;28.24;42.46
61554;BME280;47425;51.976;5.326;2022-07-24T19:17:15;101173.69;;;28.08;42.60
61554;BME280;47425;51.976;5.326;2022-07-24T19:19:40;101170.03;;;28.09;42.51
61554;BME280;47425;51.976;5.326;2022-07-24T19:22:07;101198.38;;;28.23;42.59
61554;BME280;47425;51.976;5.326;2022-07-24T19:24:33;101193.16;;;28.22;42.72
61554;BME280;47425;51.976;5.326;2022-07-24T19:26:58;101187.75;;;28.22;42.88
61554;BME280;47425;51.976;5.326;2022-07-24T19:29:23;101179.81;;;28.20;42.61
61554;BME280;47425;51.976;5.326;2022-07-24T19:31:50;101190.44;;;28.22;42.53
61554;BME280;47425;51.976;5.326;2022-07-24T19:34:18;101170.44;;;28.15;43.13
61554;BME280;47425;51.976;5.326;2022-07-24T19:36:43;101193.28;;;28.20;42.91
61554;BME280;47425;51.976;5.326;2022-07-24T19:39:10;101159.94;;;28.02;43.08
61554;BME280;47425;51.976;5.326;2022-07-24T19:41:35;101190.28;;;28.13;43.39
61554;BME280;47425;51.976;5.326;2022-07-24T19:44:01;101178.78;;;28.11;43.16
61554;BME280;47425;51.976;5.326;2022-07-24T19:46:26;101179.22;;;28.07;43.31
61554;BME280;47425;51.976;5.326;2022-07-24T19:48:53;101177.66;;;28.04;43.54
61554;BME280;47425;51.976;5.326;2022-07-24T19:51:18;101179.63;;;28.02;43.58
61554;BME280;47425;51.976;5.326;2022-07-24T19:53:43;101189.78;;;27.99;43.55
61554;BME280;47425;51.976;5.326;2022-07-24T19:56:09;101179.16;;;27.97;43.20
61554;BME280;47425;51.976;5.326;2022-07-24T19:58:35;101183.81;;;27.95;43.33
61554;BME280;47425;51.976;5.326;2022-07-24T20:01:01;101181.28;;;27.93;43.44
61554;BME280;47425;51.976;5.326;2022-07-24T20:03:26;101160.56;;;27.84;43.29
61554;BME280;47425;51.976;5.326;2022-07-24T20:05:53;101151.44;;;27.75;43.33
61554;BME280;47425;51.976;5.326;2022-07-24T20:08:18;101180.41;;;27.93;43.63
61554;BME280;47425;51.976;5.326;2022-07-24T20:10:44;101174.19;;;27.92;43.39
61554;BME280;47425;51.976;5.326;2022-07-24T20:13:09;101168.06;;;27.90;43.83
61554;BME280;47425;51.976;5.326;2022-07-24T20:15:36;101163.41;;;27.83;43.51
61554;BME280;47425;51.976;5.326;2022-07-24T20:18:01;101171.03;;;27.87;43.52
61554;BME280;47425;51.976;5.326;2022-07-24T20:20:26;101157.59;;;27.87;43.77
61554;BME280;47425;51.976;5.326;2022-07-24T20:22:53;101163.94;;;27.86;43.78
61554;BME280;47425;51.976;5.326;2022-07-24T20:25:19;101163.25;;;27.84;43.72
61554;BME280;47425;51.976;5.326;2022-07-24T20:27:45;101144.63;;;27.71;43.24
61554;BME280;47425;51.976;5.326;2022-07-24T20:30:12;101167.91;;;27.82;43.27
61554;BME280;47425;51.976;5.326;2022-07-24T20:32:37;101142.09;;;27.70;43.33
61554;BME280;47425;51.976;5.326;2022-07-24T20:35:03;101160.81;;;27.81;43.55
61554;BME280;47425;51.976;5.326;2022-07-24T20:37:29;101164.50;;;27.80;43.75
61554;BME280;47425;51.976;5.326;2022-07-24T20:40:01;101155.72;;;27.78;43.62
61554;BME280;47425;51.976;5.326;2022-07-24T20:42:26;101150.19;;;27.79;43.73
61554;BME280;47425;51.976;5.326;2022-07-24T20:44:52;101154.59;;;27.80;43.86
61554;BME280;47425;51.976;5.326;2022-07-24T20:47:18;101144.09;;;27.77;43.64
61554;BME280;47425;51.976;5.326;2022-07-24T20:49:45;101154.44;;;27.82;43.75
61554;BME280;47425;51.976;5.326;2022-07-24T20:52:10;101150.19;;;27.79;43.73
61554;BME280;47425;51.976;5.326;2022-07-24T20:54:36;101150.03;;;27.81;43.65
61554;BME280;47425;51.976;5.326;2022-07-24T20:57:02;101147.50;;;27.79;43.76
61554;BME280;47425;51.976;5.326;2022-07-24T20:59:28;101139.56;;;27.78;43.35
61554;BME280;47425;51.976;5.326;2022-07-24T21:01:53;101140.28;;;27.80;44.17
61554;BME280;47425;51.976;5.326;2022-07-24T21:04:20;101133.34;;;27.77;43.61
61554;BME280;47425;51.976;5.326;2022-07-24T21:06:46;101137.59;;;27.80;43.73
61554;BME280;47425;51.976;5.326;2022-07-24T21:09:12;101123.41;;;27.78;43.69
61554;BME280;47425;51.976;5.326;2022-07-24T21:11:37;101132.63;;;27.75;43.79
61554;BME280;47425;51.976;5.326;2022-07-24T21:14:03;101132.63;;;27.75;43.79
61554;BME280;47425;51.976;5.326;2022-07-24T21:16:29;101128.22;;;27.74;43.73
61554;BME280;47425;51.976;5.326;2022-07-24T21:18:56;101126.41;;;27.75;44.09
61554;BME280;47425;51.976;5.326;2022-07-24T21:21:22;101124.53;;;27.75;43.83
61554;BME280;47425;51.976;5.326;2022-07-24T21:23:49;101095.22;;;27.62;43.23
61554;BME280;47425;51.976;5.326;2022-07-24T21:26:14;101106.13;;;27.71;43.95
61554;BME280;47425;51.976;5.326;2022-07-24T21:28:40;101112.06;;;27.74;43.49